sensor_id;sensor_type;location;lat;lon;timestamp;pressure;altitude;pressure_sealevel;temperature;humidity
24486;BME280;13449;49.374;8.584;2023-04-24T00:01:53;99485.00;;;11.33;100.00
24486;BME280;13449;49.374;8.584;2023-04-24T00:04:20;99480.13;;;11.43;100.00
24486;BME280;13449;49.374;8.584;2023-04-24T00:06:49;99483.00;;;11.29;100.00
24486;BME280;13449;49.374;8.584;2023-04-24T00:09:20;99485.22;;;11.32;100.00
24486;BME280;13449;49.374;8.584;2023-04-24T00:11:47;99487.03;;;11.44;100.00
24486;BME280;13449;49.374;8.584;2023-04-24T00:14:13;99495.38;;;11.35;100.00
24486;BME280;13449;49.374;8.584;2023-04-24T00:16:40;99489.28;;;11.41;100.00
24486;BME280;13449;49.374;8.584;2023-04-24T00:19:06;99492.31;;;11.44;100.00
24486;BME280;13449;49.374;8.584;2023-04-24T00:21:33;99487.84;;;11.45;100.00
24486;BME280;13449;49.374;8.584;2023-04-24T00:24:00;99483.59;;;11.57;100.00
24486;BME280;13449;49.374;8.584;2023-04-24T00:26:26;99480.53;;;11.60;100.00
24486;BME280;13449;49.374;8.584;2023-04-24T00:28:53;99474.25;;;11.55;100.00
24486;BME280;13449;49.374;8.584;2023-04-24T00:31:21;99473.22;;;11.49;100.00
24486;BME280;13449;49.374;8.584;2023-04-24T00:33:48;99467.75;;;11.37;100.00
24486;BME280;13449;49.374;8.584;2023-04-24T00:36:14;99469.97;;;11.60;100.00
24486;BME280;13449;49.374;8.584;2023-04-24T00:38:41;99473.47;;;11.41;100.00
24486;BME280;13449;49.374;8.584;2023-04-24T00:41:07;99475.06;;;11.49;100.00
24486;BME280;13449;49.374;8.584;2023-04-24T00:43:34;99473.66;;;11.46;100.00
24486;BME280;13449;49.374;8.584;2023-04-24T00:46:01;99479.13;;;11.44;100.00
24486;BME280;13449;49.374;8.584;2023-04-24T00:48:28;99474.47;;;11.40;100.00
24486;BME280;13449;49.374;8.584;2023-04-24T00:50:54;99482.59;;;11.45;100.00
24486;BME280;13449;49.374;8.584;2023-04-24T00:53:23;99488.88;;;11.51;100.00
24486;BME280;13449;49.374;8.584;2023-04-24T00:55:52;99484.19;;;11.53;100.00
24486;BME280;13449;49.374;8.584;2023-04-24T00:58:19;99482.34;;;11.46;100.00
24486;BME280;13449;49.374;8.584;2023-04-24T01:00:46;99488.66;;;11.45;100.00
24486;BME280;13449;49.374;8.584;2023-04-24T01:03:17;99479.94;;;11.52;100.00
24486;BME280;13449;49.374;8.584;2023-04-24T01:05:45;99487.63;;;11.53;100.00
24486;BME280;13449;49.374;8.584;2023-04-24T01:08:14;99483.38;;;11.52;100.00
24486;BME280;13449;49.374;8.584;2023-04-24T01:10:41;99470.81;;;11.48;100.00
24486;BME280;13449;49.374;8.584;2023-04-24T01:13:08;99475.25;;;11.40;100.00
24486;BME280;13449;49.374;8.584;2023-04-24T01:15:35;99468.78;;;11.36;100.00
24486;BME280;13449;49.374;8.584;2023-04-24T01:18:03;99470.63;;;11.36;100.00
24486;BME280;13449;49.374;8.584;2023-04-24T01:20:30;99470.81;;;11.41;100.00
24486;BME280;13449;49.374;8.584;2023-04-24T01:22:58;99467.16;;;11.42;100.00
24486;BME280;13449;49.374;8.584;2023-04-24T01:25:28;99473.03;;;11.31;100.00
24486;BME280;13449;49.374;8.584;2023-04-24T01:27:54;99471.84;;;11.33;100.00
24486;BME280;13449;49.374;8.584;2023-04-24T01:30:22;99467.56;;;11.39;100.00
24486;BME280;13449;49.374;8.584;2023-04-24T01:32:48;99472.44;;;11.35;100.00
24486;BME280;13449;49.374;8.584;2023-04-24T01:35:14;99466.16;;;11.36;100.00
24486;BME280;13449;49.374;8.584;2023-04-24T01:37:41;99457.44;;;11.29;100.00
24486;BME280;13449;49.374;8.584;2023-04-24T01:40:08;99460.28;;;11.21;100.00
24486;BME280;13449;49.374;8.584;2023-04-24T01:42:37;99461.91;;;11.29;100.00
24486;BME280;13449;49.374;8.584;2023-04-24T01:45:05;99457.66;;;11.34;100.00
24486;BME280;13449;49.374;8.584;2023-04-24T01:47:31;99452.56;;;11.39;100.00
24486;BME280;13449;49.374;8.584;2023-04-24T01:49:58;99450.13;;;11.38;100.00
24486;BME280;13449;49.374;8.584;2023-04-24T01:52:25;99453.75;;;11.43;100.00
24486;BME280;13449;49.374;8.584;2023-04-24T01:54:54;99451.97;;;11.44;100.00
24486;BME280;13449;49.374;8.584;2023-04-24T01:57:22;99448.88;;;11.47;100.00
24486;BME280;13449;49.374;8.584;2023-04-24T01:59:48;99449.09;;;11.52;100.00
24486;BME280;13449;49.374;8.584;2023-04-24T02:02:15;99451.72;;;11.59;100.00
24486;BME280;13449;49.374;8.584;2023-04-24T02:04:41;99452.13;;;11.56;100.00
24486;BME280;13449;49.374;8.584;2023-04-24T02:07:08;99446.22;;;11.67;100.00
24486;BME280;13449;49.374;8.584;2023-04-24T02:09:35;99457.78;;;11.59;100.00
24486;BME280;13449;49.374;8.584;2023-04-24T02:12:01;99453.34;;;11.46;100.00
24486;BME280;13449;49.374;8.584;2023-04-24T02:14:28;99452.53;;;11.53;100.00
24486;BME280;13449;49.374;8.584;2023-04-24T02:16:54;99457.78;;;11.59;100.00
24486;BME280;13449;49.374;8.584;2023-04-24T02:19:21;99444.44;;;11.54;100.00
24486;BME280;13449;49.374;8.584;2023-04-24T02:21:47;99449.31;;;11.51;100.00
24486;BME280;13449;49.374;8.584;2023-04-24T02:24:14;99436.31;;;11.49;100.00
24486;BME280;13449;49.374;8.584;2023-04-24T02:26:40;99433.91;;;11.48;100.00
24486;BME280;13449;49.374;8.584;2023-04-24T02:29:07;99428.38;;;11.56;100.00
24486;BME280;13449;49.374;8.584;2023-04-24T02:31:36;99433.50;;;11.44;100.00
24486;BME280;13449;49.374;8.584;2023-04-24T02:34:02;99441.63;;;11.29;100.00
24486;BME280;13449;49.374;8.584;2023-04-24T02:36:29;99438.78;;;11.24;100.00
24486;BME280;13449;49.374;8.584;2023-04-24T02:38:58;99444.47;;;11.08;100.00
24486;BME280;13449;49.374;8.584;2023-04-24T02:41:26;99440.44;;;11.05;100.00
24486;BME280;13449;49.374;8.584;2023-04-24T02:44:00;99453.00;;;11.16;100.00
24486;BME280;13449;49.374;8.584;2023-04-24T02:46:29;99445.88;;;11.17;100.00
24486;BME280;13449;49.374;8.584;2023-04-24T02:48:56;99447.72;;;11.23;100.00
24486;BME280;13449;49.374;8.584;2023-04-24T02:51:24;99453.19;;;11.28;100.00
24486;BME280;13449;49.374;8.584;2023-04-24T02:53:51;99452.56;;;11.33;100.00
24486;BME280;13449;49.374;8.584;2023-04-24T02:56:17;99455.63;;;11.30;100.00
24486;BME280;13449;49.374;8.584;2023-04-24T02:58:44;99453.19;;;11.35;100.00
24486;BME280;13449;49.374;8.584;2023-04-24T03:01:10;99464.13;;;11.45;100.00
24486;BME280;13449;49.374;8.584;2023-04-24T03:03:40;99487.88;;;11.38;100.00
24486;BME280;13449;49.374;8.584;2023-04-24T03:06:07;99497.81;;;11.23;100.00
24486;BME280;13449;49.374;8.584;2023-04-24T03:08:35;99502.69;;;11.06;100.00
24486;BME280;13449;49.374;8.584;2023-04-24T03:11:04;99513.19;;;10.86;100.00
24486;BME280;13449;49.374;8.584;2023-04-24T03:13:33;99506.50;;;10.84;100.00
24486;BME280;13449;49.374;8.584;2023-04-24T03:16:00;99517.03;;;10.77;100.00
24486;BME280;13449;49.374;8.584;2023-04-24T03:18:26;99513.97;;;10.60;100.00
24486;BME280;13449;49.374;8.584;2023-04-24T03:20:53;99510.03;;;10.36;100.00
24486;BME280;13449;49.374;8.584;2023-04-24T03:23:19;99509.66;;;10.52;100.00
24486;BME280;13449;49.374;8.584;2023-04-24T03:25:49;99513.72;;;10.48;100.00
24486;BME280;13449;49.374;8.584;2023-04-24T03:28:15;99503.13;;;10.28;100.00
24486;BME280;13449;49.374;8.584;2023-04-24T03:30:42;99497.81;;;10.22;100.00
24486;BME280;13449;49.374;8.584;2023-04-24T03:33:08;99507.22;;;10.03;100.00
24486;BME280;13449;49.374;8.584;2023-04-24T03:35:36;99496.53;;;10.04;100.00
24486;BME280;13449;49.374;8.584;2023-04-24T03:38:02;99499.38;;;10.10;100.00
24486;BME280;13449;49.374;8.584;2023-04-24T03:40:33;99501.78;;;10.04;100.00
24486;BME280;13449;49.374;8.584;2023-04-24T03:42:59;99499.72;;;10.00;100.00
24486;BME280;13449;49.374;8.584;2023-04-24T03:45:29;99504.78;;;9.95;100.00
24486;BME280;13449;49.374;8.584;2023-04-24T03:47:55;99504.34;;;9.91;100.00
24486;BME280;13449;49.374;8.584;2023-04-24T03:50:24;99516.03;;;9.82;100.00
24486;BME280;13449;49.374;8.584;2023-04-24T03:52:52;99520.69;;;9.87;100.00
24486;BME280;13449;49.374;8.584;2023-04-24T03:55:21;99520.41;;;9.75;100.00
24486;BME280;13449;49.374;8.584;2023-04-24T03:57:48;99531.56;;;9.77;100.00
24486;BME280;13449;49.374;8.584;2023-04-24T04:00:19;99525.84;;;9.67;100.00
24486;BME280;13449;49.374;8.584;2023-04-24T04:02:47;99535.56;;;9.66;100.00
24486;BME280;13449;49.374;8.584;2023-04-24T04:05:13;99543.06;;;9.69;100.00
24486;BME280;13449;49.374;8.584;2023-04-24T04:07:40;99546.63;;;9.62;100.00
24486;BME280;13449;49.374;8.584;2023-04-24T04:10:09;99561.06;;;9.66;100.00
24486;BME280;13449;49.374;8.584;2023-04-24T04:12:36;99561.94;;;9.51;100.00
24486;BME280;13449;49.374;8.584;2023-04-24T04:15:02;99561.06;;;9.44;100.00
24486;BME280;13449;49.374;8.584;2023-04-24T04:17:29;99566.72;;;9.41;100.00
24486;BME280;13449;49.374;8.584;2023-04-24T04:19:56;99569.72;;;9.38;100.00
24486;BME280;13449;49.374;8.584;2023-04-24T04:22:23;99571.53;;;9.38;100.00
24486;BME280;13449;49.374;8.584;2023-04-24T04:24:49;99576.63;;;9.18;100.00
24486;BME280;13449;49.374;8.584;2023-04-24T04:27:18;99586.63;;;9.07;100.00
24486;BME280;13449;49.374;8.584;2023-04-24T04:29:44;99594.47;;;9.01;100.00
24486;BME280;13449;49.374;8.584;2023-04-24T04:32:11;99593.06;;;9.05;100.00
24486;BME280;13449;49.374;8.584;2023-04-24T04:34:40;99599.66;;;8.94;100.00
24486;BME280;13449;49.374;8.584;2023-04-24T04:37:06;99598.25;;;8.98;100.00
24486;BME280;13449;49.374;8.584;2023-04-24T04:39:35;99605.06;;;8.93;100.00
24486;BME280;13449;49.374;8.584;2023-04-24T04:42:01;99617.38;;;8.92;100.00
24486;BME280;13449;49.374;8.584;2023-04-24T04:44:28;99623.91;;;8.96;100.00
24486;BME280;13449;49.374;8.584;2023-04-24T04:46:56;99620.25;;;8.76;100.00
24486;BME280;13449;49.374;8.584;2023-04-24T04:49:23;99625.84;;;8.87;100.00
24486;BME280;13449;49.374;8.584;2023-04-24T04:51:50;99616.38;;;8.93;100.00
24486;BME280;13449;49.374;8.584;2023-04-24T04:54:17;99619.00;;;8.72;100.00
24486;BME280;13449;49.374;8.584;2023-04-24T04:56:43;99623.13;;;8.81;100.00
24486;BME280;13449;49.374;8.584;2023-04-24T04:59:09;99629.44;;;8.86;100.00
24486;BME280;13449;49.374;8.584;2023-04-24T05:01:39;99632.50;;;8.90;100.00
24486;BME280;13449;49.374;8.584;2023-04-24T05:04:08;99630.72;;;8.91;100.00
24486;BME280;13449;49.374;8.584;2023-04-24T05:06:35;99621.25;;;8.96;100.00
24486;BME280;13449;49.374;8.584;2023-04-24T05:09:01;99620.78;;;9.07;100.00
24486;BME280;13449;49.374;8.584;2023-04-24T05:11:29;99619.75;;;9.23;100.00
24486;BME280;13449;49.374;8.584;2023-04-24T05:13:56;99625.97;;;9.22;100.00
24486;BME280;13449;49.374;8.584;2023-04-24T05:16:22;99629.25;;;9.24;100.00
24486;BME280;13449;49.374;8.584;2023-04-24T05:18:49;99644.00;;;9.25;100.00
24486;BME280;13449;49.374;8.584;2023-04-24T05:21:16;99640.56;;;9.25;100.00
24486;BME280;13449;49.374;8.584;2023-04-24T05:23:42;99649.97;;;9.34;100.00
24486;BME280;13449;49.374;8.584;2023-04-24T05:26:08;99632.38;;;9.34;100.00
24486;BME280;13449;49.374;8.584;2023-04-24T05:28:35;99649.31;;;9.32;100.00
24486;BME280;13449;49.374;8.584;2023-04-24T05:31:03;99654.78;;;9.52;100.00
24486;BME280;13449;49.374;8.584;2023-04-24T05:33:29;99661.78;;;9.66;100.00
24486;BME280;13449;49.374;8.584;2023-04-24T05:35:56;99655.41;;;9.75;100.00
24486;BME280;13449;49.374;8.584;2023-04-24T05:38:26;99656.47;;;9.59;100.00
24486;BME280;13449;49.374;8.584;2023-04-24T05:40:55;99664.59;;;9.65;100.00
24486;BME280;13449;49.374;8.584;2023-04-24T05:43:21;99660.50;;;9.83;100.00
24486;BME280;13449;49.374;8.584;2023-04-24T05:45:50;99662.06;;;9.99;100.00
24486;BME280;13449;49.374;8.584;2023-04-24T05:48:16;99667.84;;;9.88;100.00
24486;BME280;13449;49.374;8.584;2023-04-24T05:50:45;99654.66;;;10.16;100.00
24486;BME280;13449;49.374;8.584;2023-04-24T05:53:14;99656.50;;;10.44;100.00
24486;BME280;13449;49.374;8.584;2023-04-24T05:55:42;99660.09;;;10.77;100.00
24486;BME280;13449;49.374;8.584;2023-04-24T05:58:09;99668.06;;;10.49;100.00
24486;BME280;13449;49.374;8.584;2023-04-24T06:00:35;99678.19;;;10.52;100.00
24486;BME280;13449;49.374;8.584;2023-04-24T06:03:02;99670.63;;;10.77;100.00
24486;BME280;13449;49.374;8.584;2023-04-24T06:05:30;99673.75;;;11.01;100.00
24486;BME280;13449;49.374;8.584;2023-04-24T06:07:57;99674.78;;;11.07;100.00
24486;BME280;13449;49.374;8.584;2023-04-24T06:10:23;99678.38;;;10.86;100.00
24486;BME280;13449;49.374;8.584;2023-04-24T06:12:50;99676.31;;;10.81;100.00
24486;BME280;13449;49.374;8.584;2023-04-24T06:15:18;99678.53;;;10.77;100.00
24486;BME280;13449;49.374;8.584;2023-04-24T06:17:45;99680.50;;;10.69;100.00
24486;BME280;13449;49.374;8.584;2023-04-24T06:20:17;99685.25;;;10.45;100.00
24486;BME280;13449;49.374;8.584;2023-04-24T06:22:46;99688.94;;;10.51;100.00
24486;BME280;13449;49.374;8.584;2023-04-24T06:25:15;99688.13;;;10.50;100.00
24486;BME280;13449;49.374;8.584;2023-04-24T06:27:41;99687.50;;;10.48;100.00
24486;BME280;13449;49.374;8.584;2023-04-24T06:30:08;99687.88;;;10.45;100.00
24486;BME280;13449;49.374;8.584;2023-04-24T06:32:35;99692.59;;;10.50;100.00
24486;BME280;13449;49.374;8.584;2023-04-24T06:35:06;99685.63;;;10.77;100.00
24486;BME280;13449;49.374;8.584;2023-04-24T06:37:36;99697.09;;;11.04;100.00
24486;BME280;13449;49.374;8.584;2023-04-24T06:40:03;99699.63;;;10.84;100.00
24486;BME280;13449;49.374;8.584;2023-04-24T06:42:35;99702.22;;;10.71;100.00
24486;BME280;13449;49.374;8.584;2023-04-24T06:45:06;99690.44;;;10.67;100.00
24486;BME280;13449;49.374;8.584;2023-04-24T06:47:33;99690.91;;;10.77;100.00
24486;BME280;13449;49.374;8.584;2023-04-24T06:50:05;99695.38;;;10.76;100.00
24486;BME280;13449;49.374;8.584;2023-04-24T06:52:35;99693.47;;;11.12;100.00
24486;BME280;13449;49.374;8.584;2023-04-24T06:55:05;99695.78;;;11.41;100.00
24486;BME280;13449;49.374;8.584;2023-04-24T06:57:31;99702.91;;;11.48;100.00
24486;BME280;13449;49.374;8.584;2023-04-24T06:59:58;99704.19;;;11.04;100.00
24486;BME280;13449;49.374;8.584;2023-04-24T07:02:27;99722.91;;;10.74;100.00
24486;BME280;13449;49.374;8.584;2023-04-24T07:04:54;99725.81;;;10.51;100.00
24486;BME280;13449;49.374;8.584;2023-04-24T07:07:20;99728.69;;;10.06;100.00
24486;BME280;13449;49.374;8.584;2023-04-24T07:09:50;99724.28;;;9.86;100.00
24486;BME280;13449;49.374;8.584;2023-04-24T07:12:16;99730.34;;;9.65;100.00
24486;BME280;13449;49.374;8.584;2023-04-24T07:14:43;99734.28;;;9.54;100.00
24486;BME280;13449;49.374;8.584;2023-04-24T07:17:09;99737.56;;;9.56;100.00
24486;BME280;13449;49.374;8.584;2023-04-24T07:19:38;99738.38;;;9.56;100.00
24486;BME280;13449;49.374;8.584;2023-04-24T07:22:08;99752.44;;;9.70;100.00
24486;BME280;13449;49.374;8.584;2023-04-24T07:24:37;99744.94;;;9.67;100.00
24486;BME280;13449;49.374;8.584;2023-04-24T07:27:05;99755.22;;;9.83;100.00
24486;BME280;13449;49.374;8.584;2023-04-24T07:29:34;99758.78;;;9.97;100.00
24486;BME280;13449;49.374;8.584;2023-04-24T07:32:03;99758.22;;;10.02;100.00
24486;BME280;13449;49.374;8.584;2023-04-24T07:34:35;99761.09;;;10.07;100.00
24486;BME280;13449;49.374;8.584;2023-04-24T07:37:01;99766.41;;;10.14;100.00
24486;BME280;13449;49.374;8.584;2023-04-24T07:39:28;99770.19;;;10.04;100.00
24486;BME280;13449;49.374;8.584;2023-04-24T07:41:57;99760.38;;;10.20;100.00
24486;BME280;13449;49.374;8.584;2023-04-24T07:44:26;99759.78;;;10.18;100.00
24486;BME280;13449;49.374;8.584;2023-04-24T07:46:58;99757.03;;;10.26;100.00
24486;BME280;13449;49.374;8.584;2023-04-24T07:49:27;99762.75;;;10.36;100.00
24486;BME280;13449;49.374;8.584;2023-04-24T07:51:54;99769.50;;;10.73;100.00
24486;BME280;13449;49.374;8.584;2023-04-24T07:54:23;99763.00;;;11.72;100.00
24486;BME280;13449;49.374;8.584;2023-04-24T07:56:49;99763.28;;;11.29;100.00
24486;BME280;13449;49.374;8.584;2023-04-24T07:59:18;99765.31;;;11.34;100.00
24486;BME280;13449;49.374;8.584;2023-04-24T08:01:47;99760.44;;;12.12;100.00
24486;BME280;13449;49.374;8.584;2023-04-24T08:04:14;99765.31;;;11.34;100.00
24486;BME280;13449;49.374;8.584;2023-04-24T08:06:43;99774.31;;;11.53;100.00
24486;BME280;13449;49.374;8.584;2023-04-24T08:09:10;99775.09;;;11.46;100.00
24486;BME280;13449;49.374;8.584;2023-04-24T08:11:36;99770.63;;;12.35;100.00
24486;BME280;13449;49.374;8.584;2023-04-24T08:14:03;99772.13;;;12.89;100.00
24486;BME280;13449;49.374;8.584;2023-04-24T08:16:29;99764.38;;;13.01;100.00
24486;BME280;13449;49.374;8.584;2023-04-24T08:18:56;99772.69;;;13.04;100.00
24486;BME280;13449;49.374;8.584;2023-04-24T08:21:25;99773.59;;;12.72;100.00
24486;BME280;13449;49.374;8.584;2023-04-24T08:23:53;99776.69;;;12.29;100.00
24486;BME280;13449;49.374;8.584;2023-04-24T08:26:19;99776.88;;;12.14;100.00
24486;BME280;13449;49.374;8.584;2023-04-24T08:28:48;99784.19;;;11.99;100.00
24486;BME280;13449;49.374;8.584;2023-04-24T08:31:18;99790.81;;;11.75;100.00
24486;BME280;13449;49.374;8.584;2023-04-24T08:33:48;99792.38;;;11.49;100.00
24486;BME280;13449;49.374;8.584;2023-04-24T08:36:15;99796.03;;;11.48;100.00
24486;BME280;13449;49.374;8.584;2023-04-24T08:38:44;99798.88;;;11.53;100.00
24486;BME280;13449;49.374;8.584;2023-04-24T08:41:14;99807.53;;;11.40;100.00
24486;BME280;13449;49.374;8.584;2023-04-24T08:43:43;99818.94;;;11.41;100.00
24486;BME280;13449;49.374;8.584;2023-04-24T08:46:10;99811.00;;;11.34;100.00
24486;BME280;13449;49.374;8.584;2023-04-24T08:48:39;99816.16;;;11.62;100.00
24486;BME280;13449;49.374;8.584;2023-04-24T08:51:07;99809.81;;;11.50;100.00
24486;BME280;13449;49.374;8.584;2023-04-24T08:53:35;99803.34;;;11.53;100.00
24486;BME280;13449;49.374;8.584;2023-04-24T08:56:02;99817.91;;;12.70;100.00
24486;BME280;13449;49.374;8.584;2023-04-24T08:58:31;99817.03;;;13.02;100.00
24486;BME280;13449;49.374;8.584;2023-04-24T09:00:58;99821.91;;;13.70;100.00
24486;BME280;13449;49.374;8.584;2023-04-24T09:03:27;99822.53;;;14.04;100.00
24486;BME280;13449;49.374;8.584;2023-04-24T09:05:57;99827.53;;;13.80;100.00
24486;BME280;13449;49.374;8.584;2023-04-24T09:08:25;99827.94;;;13.46;100.00
24486;BME280;13449;49.374;8.584;2023-04-24T09:10:52;99824.53;;;13.12;100.00
24486;BME280;13449;49.374;8.584;2023-04-24T09:13:20;99828.69;;;12.81;100.00
24486;BME280;13449;49.374;8.584;2023-04-24T09:15:46;99832.38;;;13.90;100.00
24486;BME280;13449;49.374;8.584;2023-04-24T09:18:15;99834.69;;;13.80;100.00
24486;BME280;13449;49.374;8.584;2023-04-24T09:21:08;99837.97;;;13.10;100.00
24486;BME280;13449;49.374;8.584;2023-04-24T09:23:37;99842.09;;;12.67;100.00
24486;BME280;13449;49.374;8.584;2023-04-24T09:26:04;99851.88;;;12.33;100.00
24486;BME280;13449;49.374;8.584;2023-04-24T09:28:35;99850.25;;;12.25;100.00
24486;BME280;13449;49.374;8.584;2023-04-24T09:31:15;99847.94;;;12.09;100.00
24486;BME280;13449;49.374;8.584;2023-04-24T09:34:02;99845.53;;;12.01;100.00
24486;BME280;13449;49.374;8.584;2023-04-24T09:36:36;99850.50;;;11.82;100.00
24486;BME280;13449;49.374;8.584;2023-04-24T09:39:12;99857.50;;;12.03;100.00
24486;BME280;13449;49.374;8.584;2023-04-24T09:41:55;99849.00;;;12.21;100.00
24486;BME280;13449;49.374;8.584;2023-04-24T09:44:27;99855.69;;;12.90;100.00
24486;BME280;13449;49.374;8.584;2023-04-24T09:46:58;99853.25;;;12.95;100.00
24486;BME280;13449;49.374;8.584;2023-04-24T09:49:29;99856.25;;;13.32;100.00
24486;BME280;13449;49.374;8.584;2023-04-24T09:52:09;99864.22;;;14.15;100.00
24486;BME280;13449;49.374;8.584;2023-04-24T09:54:37;99873.94;;;14.60;100.00
24486;BME280;13449;49.374;8.584;2023-04-24T09:57:04;99867.25;;;14.51;100.00
24486;BME280;13449;49.374;8.584;2023-04-24T09:59:31;99876.69;;;14.40;100.00
24486;BME280;13449;49.374;8.584;2023-04-24T10:01:59;99866.59;;;13.92;100.00
24486;BME280;13449;49.374;8.584;2023-04-24T10:04:27;99866.84;;;13.25;100.00
24486;BME280;13449;49.374;8.584;2023-04-24T10:06:57;99873.38;;;12.90;100.00
24486;BME280;13449;49.374;8.584;2023-04-24T10:09:26;99881.34;;;12.56;100.00
24486;BME280;13449;49.374;8.584;2023-04-24T10:11:55;99876.06;;;12.70;100.00
24486;BME280;13449;49.374;8.584;2023-04-24T10:14:23;99886.19;;;12.39;100.00
24486;BME280;13449;49.374;8.584;2023-04-24T10:16:53;99885.97;;;12.21;100.00
24486;BME280;13449;49.374;8.584;2023-04-24T10:19:25;99887.28;;;11.84;100.00
24486;BME280;13449;49.374;8.584;2023-04-24T10:21:52;99898.91;;;11.89;100.00
24486;BME280;13449;49.374;8.584;2023-04-24T10:24:19;99899.47;;;11.85;100.00
24486;BME280;13449;49.374;8.584;2023-04-24T10:26:48;99907.75;;;11.82;100.00
24486;BME280;13449;49.374;8.584;2023-04-24T10:29:18;99912.53;;;12.00;100.00
24486;BME280;13449;49.374;8.584;2023-04-24T10:31:45;99907.88;;;12.15;100.00
24486;BME280;13449;49.374;8.584;2023-04-24T10:34:15;99921.31;;;12.13;100.00
24486;BME280;13449;49.374;8.584;2023-04-24T10:36:48;99924.94;;;11.99;100.00
24486;BME280;13449;49.374;8.584;2023-04-24T10:39:18;99914.56;;;12.04;100.00
24486;BME280;13449;49.374;8.584;2023-04-24T10:41:53;99926.06;;;12.45;100.00
24486;BME280;13449;49.374;8.584;2023-04-24T10:44:22;99921.56;;;12.45;100.00
24486;BME280;13449;49.374;8.584;2023-04-24T10:46:53;99916.09;;;12.86;100.00
24486;BME280;13449;49.374;8.584;2023-04-24T10:49:28;99916.31;;;12.72;100.00
24486;BME280;13449;49.374;8.584;2023-04-24T10:52:01;99925.03;;;12.59;100.00
24486;BME280;13449;49.374;8.584;2023-04-24T10:54:33;99922.00;;;12.75;100.00
24486;BME280;13449;49.374;8.584;2023-04-24T10:59:51;99928.47;;;13.19;100.00
24486;BME280;13449;49.374;8.584;2023-04-24T11:02:18;99925.25;;;13.10;100.00
24486;BME280;13449;49.374;8.584;2023-04-24T11:04:45;99927.47;;;13.20;100.00
24486;BME280;13449;49.374;8.584;2023-04-24T11:07:12;99927.19;;;14.45;100.00
24486;BME280;13449;49.374;8.584;2023-04-24T11:09:41;99938.59;;;14.45;100.00
24486;BME280;13449;49.374;8.584;2023-04-24T11:12:11;99928.31;;;14.69;100.00
24486;BME280;13449;49.374;8.584;2023-04-24T11:20:01;99938.41;;;14.09;100.00
24486;BME280;13449;49.374;8.584;2023-04-24T11:22:44;99936.72;;;13.76;100.00
24486;BME280;13449;49.374;8.584;2023-04-24T11:25:11;99935.16;;;13.48;100.00
24486;BME280;13449;49.374;8.584;2023-04-24T11:30:07;99949.47;;;13.99;100.00
24486;BME280;13449;49.374;8.584;2023-04-24T11:37:44;99942.66;;;14.55;100.00
24486;BME280;13449;49.374;8.584;2023-04-24T11:40:21;99942.66;;;14.48;100.00
24486;BME280;13449;49.374;8.584;2023-04-24T11:42:54;99936.75;;;14.14;100.00
24486;BME280;13449;49.374;8.584;2023-04-24T11:45:29;99939.16;;;14.22;100.00
24486;BME280;13449;49.374;8.584;2023-04-24T11:47:58;99935.88;;;14.90;100.00
24486;BME280;13449;49.374;8.584;2023-04-24T11:50:26;99939.13;;;15.36;100.00
24486;BME280;13449;49.374;8.584;2023-04-24T11:52:54;99935.06;;;15.15;100.00
24486;BME280;13449;49.374;8.584;2023-04-24T11:57:54;99944.72;;;14.46;100.00
24486;BME280;13449;49.374;8.584;2023-04-24T12:00:30;99951.44;;;14.10;100.00
24486;BME280;13449;49.374;8.584;2023-04-24T12:03:24;99958.03;;;14.01;100.00
24486;BME280;13449;49.374;8.584;2023-04-24T12:05:54;99947.09;;;13.77;100.00
24486;BME280;13449;49.374;8.584;2023-04-24T12:08:31;99947.53;;;13.68;100.00
24486;BME280;13449;49.374;8.584;2023-04-24T12:11:00;99955.34;;;13.36;100.00
24486;BME280;13449;49.374;8.584;2023-04-24T12:13:29;99951.03;;;13.62;100.00
24486;BME280;13449;49.374;8.584;2023-04-24T12:15:58;99963.81;;;13.65;100.00
24486;BME280;13449;49.374;8.584;2023-04-24T12:18:27;99954.00;;;13.85;100.00
24486;BME280;13449;49.374;8.584;2023-04-24T12:21:14;99962.34;;;13.89;100.00
24486;BME280;13449;49.374;8.584;2023-04-24T12:23:45;99957.53;;;14.17;100.00
24486;BME280;13449;49.374;8.584;2023-04-24T12:26:16;99965.69;;;14.16;100.00
24486;BME280;13449;49.374;8.584;2023-04-24T12:28:46;99956.19;;;14.01;100.00
24486;BME280;13449;49.374;8.584;2023-04-24T12:31:16;99956.66;;;13.85;100.00
24486;BME280;13449;49.374;8.584;2023-04-24T12:33:43;99960.91;;;14.31;100.00
24486;BME280;13449;49.374;8.584;2023-04-24T12:36:13;99955.66;;;13.73;100.00
24486;BME280;13449;49.374;8.584;2023-04-24T12:38:43;99953.13;;;13.98;100.00
24486;BME280;13449;49.374;8.584;2023-04-24T12:41:13;99945.47;;;14.21;100.00
24486;BME280;13449;49.374;8.584;2023-04-24T12:43:51;99948.88;;;14.99;100.00
24486;BME280;13449;49.374;8.584;2023-04-24T12:46:20;99944.09;;;15.51;100.00
24486;BME280;13449;49.374;8.584;2023-04-24T12:48:48;99934.53;;;16.17;100.00
24486;BME280;13449;49.374;8.584;2023-04-24T12:51:14;99936.38;;;16.16;100.00
24486;BME280;13449;49.374;8.584;2023-04-24T12:53:40;99942.50;;;15.43;100.00
24486;BME280;13449;49.374;8.584;2023-04-24T12:56:07;99946.53;;;15.09;100.00
24486;BME280;13449;49.374;8.584;2023-04-24T12:58:34;99942.06;;;15.28;100.00
24486;BME280;13449;49.374;8.584;2023-04-24T13:01:00;99938.50;;;15.15;100.00
24486;BME280;13449;49.374;8.584;2023-04-24T13:03:27;99941.34;;;16.12;100.00
24486;BME280;13449;49.374;8.584;2023-04-24T13:05:56;99941.97;;;15.78;100.00
24486;BME280;13449;49.374;8.584;2023-04-24T13:08:22;99944.09;;;15.69;100.00
24486;BME280;13449;49.374;8.584;2023-04-24T13:10:52;99945.13;;;15.68;100.00
24486;BME280;13449;49.374;8.584;2023-04-24T13:13:20;99936.84;;;16.25;100.00
24486;BME280;13449;49.374;8.584;2023-04-24T13:15:47;99950.84;;;15.47;100.00
24486;BME280;13449;49.374;8.584;2023-04-24T13:18:13;99940.00;;;15.30;100.00